Fredericksburg, TX (78624)

6:29 AM CDT on July 26, 2016 (GMT -0500)
Stehling Hill US 87 North | | Change Station

Elev 1957 ft 30.33 °N, 98.92 °W | Updated 10 seconds ago

Scattered Clouds
Scattered Clouds
70.7 °F
Feels Like 73 °F
N
0.0
Wind Variable Wind from SSE
Gusts 0.0 mph

Today
High -- | Low -- °F
--% Chance of Precip.
Yesterday
High -- | Low -- °F
Precip. -- in
Pressure 29.97 in
Visibility 10.0 miles
Clouds Scattered Clouds 500 ft
Heat Index 73 °F
Dew Point 22 °F
Humidity 16%
Rainfall 0.00 in
Snow Depth Not available.
6:50 AM 8:33 PM
Waning Gibbous, 55% visible
METAR KT82 261115Z AUTO 00000KT 10SM SCT005 22/21 A2997 RMK AO2 T02210211
Pressure 29.97 in
Visibility 10.0 miles
Clouds Scattered Clouds 500 ft
Heat Index 73 °F
Dew Point 22 °F
Humidity 16%
Rainfall 0.00 in
Snow Depth Not available.
6:50 AM 8:33 PM
Waning Gibbous, 55% visible
METAR KT82 261115Z AUTO 00000KT 10SM SCT005 22/21 A2997 RMK AO2 T02210211

10-Day Weather Forecast

Almanac

Astronomy

Jul. 26, 2016 Rise Set
Actual Time
Civil Twilight
Nautical Twilight
Astronomical Twilight
Moon
Length of Visible Light
Length of Day
Tomorrow will be .
, % of the Moon is Illuminated

Today's Extremes

State Highs State Lows

Community

WunderPhotos

Upload Photos

1,927,575 photos uploaded!

WunderBlog® & News

Nearby

Air Quality

  Air Quality AQ Index Pollutant
Not available.

Snow Depth

Station Depth Elevation

Earthquake Activity

City Distance Mag. Time & Date
Minimum magnitude displayed is 2.5.

Coastal Water Temperatures

Place Temperature

Stations

Nearby Weather Stations

Station Location Temp. Windchill Dew Point Humidity Wind Precip. Elev Updated Type
                   

Watches & Warnings

There are currently no watches in effect.